Flight Track Log - Related Links

Times and Time Zones

All times are in EDT time to prevent confusion due to time zone crossing. See the N97DK flight status page for this flight to view local times or setup timezone preferences in your user account.

Time Position Orientation Groundspeed Altitude Reporting Facility
EDT Latitude Longitude Course Direction KTS MPH feet Rate Location/Type
Sat 05:20:38 PM 39.3667 -84.5333 315° West 166 191 1,800  Level Cincinnati TRACON
Sat 05:20:56 PM 39.3833 -84.5500 322° Northwest 180 207 2,600 3,231 Climbing Cincinnati TRACON
Sat 05:21:56 PM 39.4000 -84.6167 288° West 219 252 6,000 3,300 Climbing Cincinnati TRACON
Sat 05:22:16 PM 39.4150 -84.6344 318° Northwest 217 250 7,000 3,630 Climbing Indianapolis Center
Sat 05:23:17 PM 39.4644 -84.6981 315° West 237 273 10,900 3,854 Climbing Indianapolis Center
Sat 05:24:19 PM 39.5353 -84.7842 317° Northwest 334 384 14,900 3,902 Climbing Indianapolis Center
Sat 05:25:20 PM 39.6083 -84.8744 316° Northwest 355 409 18,900 3,463 Climbing Indianapolis Center
Sat 05:26:00 PM 39.7153 -84.9887 315° West  Level FlightAware Approximate
Sat 05:26:22 PM 39.6958 -84.9856 316° Northwest 378 435 22,000  Level Indianapolis Center
Sat 05:27:23 PM 39.7739 -85.0844 316° Northwest 390 449 22,000  Level Indianapolis Center
Sat 05:28:24 PM 39.8567 -85.1892 316° Northwest 410 472 22,000  Level Indianapolis Center
Sat 05:29:26 PM 39.9378 -85.2922 316° Northwest 412 474 22,000  Level Indianapolis Center
Sat 05:30:27 PM 40.0183 -85.3950 316° Northwest 408 470 22,000  Level Indianapolis Center
Sat 05:31:29 PM 40.0986 -85.4961 316° Northwest 406 467 22,000  Level Indianapolis Center
Sat 05:31:58 PM 40.1522 -85.5458 325° Northwest 405 466 22,000  Level Chicago Center
Sat 05:33:00 PM 40.2436 -85.6339 324° Northwest 410 472 22,000  Level Chicago Center
Sat 05:34:01 PM 40.3331 -85.7222 323° Northwest 407 468 22,000 -98 Level Chicago Center
Sat 05:35:02 PM 40.4250 -85.8111 324° Northwest 412 474 21,800 -634 Descending Chicago Center
Sat 05:36:04 PM 40.5144 -85.8994 323° Northwest 407 468 20,700 -878 Descending Chicago Center
Sat 05:37:05 PM 40.6019 -85.9864 323° Northwest 400 460 20,000 -341 Descending Chicago Center
Sat 05:38:07 PM 40.6983 -86.0817 323° Northwest 398 458 20,000 -732 Level Chicago Center
Sat 05:39:08 PM 40.7831 -86.1664 323° Northwest 385 443 18,500 -1,967 Descending Chicago Center
Sat 05:40:09 PM 40.8678 -86.2489 324° Northwest 375 432 16,000 -2,293 Descending Chicago Center
Sat 05:41:11 PM 40.9481 -86.3317 322° Northwest 372 428 13,800 -2,293 Descending Chicago Center
Sat 05:42:12 PM 41.0394 -86.4244 323° Northwest 353 406 11,300 -1,561 Descending Chicago Center
Sat 05:43:14 PM 41.1017 -86.5150 312° West 336 387 10,600 -634 Descending Chicago Center
Sat 05:44:15 PM 41.1619 -86.6075 311° West 332 382 10,000 -293 Descending Chicago Center
Sat 05:45:17 PM 41.2239 -86.7025 311° West 337 388 10,000  Level Chicago Center
Sat 05:46:18 PM 41.2803 -86.7925 310° West 329 379 10,000  Level Chicago Center
Sat 05:47:20 PM 41.3394 -86.8836 311° West 328 377 10,000  Level Chicago Center
Sat 05:48:21 PM 41.3947 -86.9694 311° West 315 362 10,000 -829 Level Chicago Center
Sat 05:49:23 PM 41.4478 -87.0550 310° West 254 292 8,300 -1,659 Descending Chicago Center
Sat 05:50:24 PM 41.4814 -87.1319 300° West 243 280 6,600 -1,516 Descending Chicago Center
Sat 05:50:54 PM 41.5000 -87.1667 306° West 252 290 6,000 -400 Descending Chicago TRACON
Sat 05:51:54 PM 41.5333 -87.2500 298° West 243 280 6,000 -350 Level Chicago TRACON
Sat 05:52:54 PM 41.5667 -87.3333 298° West 240 276 5,300 -895 Descending Chicago TRACON
Sat 05:53:48 PM 41.5833 -87.4000 289° West 245 282 4,300 -813 Descending Chicago TRACON
Sat 05:54:30 PM 41.6089 -87.4469 306° West 242 278 4,000 -173 Descending Chicago Center
Sat 05:55:32 PM 41.6467 -87.5400 299° West 242 278 4,000 -49 Level Chicago Center
Sat 05:56:33 PM 41.6739 -87.5964 303° West 205 236 3,900 -629 Descending Chicago Center
Sat 05:57:36 PM 41.7167 -87.6500 317° Northwest 175 201 2,700 -1,024 Descending Chicago TRACON
Sat 05:58:36 PM 41.7333 -87.6833 304° West 139 160 1,800 -762 Descending Chicago TRACON
Sat 05:59:42 PM 41.7667 -87.7167 323° Northwest 115 132 1,100 -636 Descending Chicago TRACON
Sat 06:02:00 PM 41.7833 -87.7500 334° Northwest  Level FlightAware Approximate

Login

Don't have an account? Register now (free) for customized features, flight alerts, and more!